Decoded Metar for EHEH (EINDHOVEN in NETHERLANDS) (IATA:EIN) | Meteo·Mobile Aviation Weather
aviador You're here:

EHEH Decoded Metar

EINDHOVEN in NETHERLANDS
Report Time2018-08-22 05:25:00
UTC Time2018-08-22 05:37:15
Flight Rules lifr LIFR
WindCalm
Visibility0150 m
Phenomena:Mist
Shallow Fog
Fog
Clouds:Overcast 000 Hf
Scattered 001 Hf
Ceiling0 ft
Temp15°C (ISA 0)
Dew Point15°C (100% RH)
QNH1017 hPa
Density Alt180 ft
Elevation72 ft
Report Wrong Elevation
Raw Report
METAR EHEH 220525Z AUTO 00000KT 0150 R21/0250N FG OVC000 15/15 Q1017
RED VRB03KT 2000 BR MIFG SCT001 TEMPO 0500 BCFG=

Extra information for EHEH:More info

Metar Taf Metar & Taf Last 4 Metars F.Rules Stats Wind Profile Meteogram Temp Stats Airport Information Weather charts Add Link Nearby VenuesMetar ALERT Operation Metar Decoded Social comments